ソチ の空港の天気 - METARとTAF

ソチ空港 ( URSS / AER ) - ロシア ソチ
飛行場実況気象(Metar)
観測時間08/11 10:30 MSK (08/11 07:30 UTC)
風向・風速北 2m/s
視程10km以上
天気現象
全天の4割程度の雲 雲底高度 790m
気温25℃
湿度69%
気圧1009hPa
METARURSS 110730Z 35002MPS 320V030 9999 SCT026 25/19 Q1009 R02/010070 R06/010070 NOSIG RMK R06/33001MPS MT OBSC QFE755
過去の天気等 Google飛行場航空写真 Wunderground天気予報

過去48時間のMETAR

飛行場予報(TAF)
発表時間: 8/11 07:55 MSK (8/11 04:55 UTC)
予報対象時間: 11日9時 MSK ~ 12日9時 MSK
風向・風速北東 3m/s 瞬間風速 8m/s
視程10km以上
全天の8割程度の積乱雲 雲底高度 1220m
全天を覆う雲 雲底高度 3050m
11日9時 MSK ~ 11日15時 MSK に一時的に
風向・風速不定 7m/s 瞬間風速 12m/s
天気現象弱い雷雨 竜巻
11日15時 MSK から
風向・風速西 4m/s 瞬間風速 9m/s
視程10km以上
全天の4割程度の積乱雲 雲底高度 910m
全天の8割程度の雲 雲底高度 3050m
11日20時 MSK ~ 11日21時 MSK に徐々に
風向・風速北東 3m/s 瞬間風速 8m/s
全天の4割程度の雲 雲底高度 610m
TAF URSS 110455Z 1106/1206 05003G08MPS 9999 BKN040CB OVC100
TEMPO 1106/1112 VRB07G12MPS -TSRA FC
FM111200 27004G09MPS 9999 SCT030CB BKN100
BECMG 1117/1118 05003G08MPS SCT020